sensor_id;sensor_type;location;lat;lon;timestamp;P1;durP1;ratioP1;P2;durP2;ratioP2
7181;SDS011;3632;42.724;23.298;2023-09-18T00:00:24;15.70;;;14.20;;
7181;SDS011;3632;42.724;23.298;2023-09-18T00:02:51;17.10;;;14.90;;
7181;SDS011;3632;42.724;23.298;2023-09-18T00:05:18;18.07;;;16.27;;
7181;SDS011;3632;42.724;23.298;2023-09-18T00:07:44;17.17;;;15.57;;
7181;SDS011;3632;42.724;23.298;2023-09-18T00:10:11;18.20;;;16.30;;
7181;SDS011;3632;42.724;23.298;2023-09-18T00:12:40;17.30;;;15.53;;
7181;SDS011;3632;42.724;23.298;2023-09-18T00:15:07;18.10;;;16.27;;
7181;SDS011;3632;42.724;23.298;2023-09-18T00:17:34;17.63;;;15.83;;
7181;SDS011;3632;42.724;23.298;2023-09-18T00:20:01;17.77;;;15.93;;
7181;SDS011;3632;42.724;23.298;2023-09-18T00:22:30;17.43;;;15.83;;
7181;SDS011;3632;42.724;23.298;2023-09-18T00:24:57;18.60;;;16.37;;
7181;SDS011;3632;42.724;23.298;2023-09-18T00:27:24;18.07;;;16.27;;
7181;SDS011;3632;42.724;23.298;2023-09-18T00:29:52;17.70;;;15.93;;
7181;SDS011;3632;42.724;23.298;2023-09-18T00:32:19;18.67;;;16.80;;
7181;SDS011;3632;42.724;23.298;2023-09-18T00:34:45;17.80;;;16.10;;
7181;SDS011;3632;42.724;23.298;2023-09-18T00:37:12;17.47;;;15.87;;
7181;SDS011;3632;42.724;23.298;2023-09-18T00:39:39;17.97;;;15.77;;
7181;SDS011;3632;42.724;23.298;2023-09-18T00:42:07;17.63;;;15.93;;
7181;SDS011;3632;42.724;23.298;2023-09-18T00:44:38;18.17;;;16.43;;
7181;SDS011;3632;42.724;23.298;2023-09-18T00:47:06;16.43;;;14.93;;
7181;SDS011;3632;42.724;23.298;2023-09-18T00:49:34;18.27;;;16.33;;
7181;SDS011;3632;42.724;23.298;2023-09-18T00:52:03;17.17;;;15.53;;
7181;SDS011;3632;42.724;23.298;2023-09-18T00:54:31;17.63;;;15.83;;
7181;SDS011;3632;42.724;23.298;2023-09-18T00:57:00;15.97;;;14.27;;
7181;SDS011;3632;42.724;23.298;2023-09-18T00:59:27;15.77;;;14.37;;
7181;SDS011;3632;42.724;23.298;2023-09-18T01:01:54;15.50;;;13.90;;
7181;SDS011;3632;42.724;23.298;2023-09-18T01:04:23;15.57;;;14.00;;
7181;SDS011;3632;42.724;23.298;2023-09-18T01:06:53;17.10;;;14.47;;
7181;SDS011;3632;42.724;23.298;2023-09-18T01:09:21;15.53;;;14.10;;
7181;SDS011;3632;42.724;23.298;2023-09-18T01:11:50;15.03;;;13.53;;
7181;SDS011;3632;42.724;23.298;2023-09-18T01:14:25;15.20;;;13.00;;
7181;SDS011;3632;42.724;23.298;2023-09-18T01:16:58;15.10;;;13.60;;
7181;SDS011;3632;42.724;23.298;2023-09-18T01:19:38;15.47;;;13.73;;
7181;SDS011;3632;42.724;23.298;2023-09-18T01:22:06;16.33;;;12.27;;
7181;SDS011;3632;42.724;23.298;2023-09-18T01:24:35;14.47;;;12.93;;
7181;SDS011;3632;42.724;23.298;2023-09-18T01:27:04;14.70;;;11.90;;
7181;SDS011;3632;42.724;23.298;2023-09-18T01:29:34;13.47;;;11.97;;
7181;SDS011;3632;42.724;23.298;2023-09-18T01:32:01;12.83;;;11.40;;
7181;SDS011;3632;42.724;23.298;2023-09-18T01:34:28;11.70;;;10.53;;
7181;SDS011;3632;42.724;23.298;2023-09-18T01:36:58;12.33;;;10.30;;
7181;SDS011;3632;42.724;23.298;2023-09-18T01:39:27;11.87;;;10.67;;
7181;SDS011;3632;42.724;23.298;2023-09-18T01:41:58;12.17;;;10.83;;
7181;SDS011;3632;42.724;23.298;2023-09-18T01:44:26;11.10;;;9.90;;
7181;SDS011;3632;42.724;23.298;2023-09-18T01:46:53;11.10;;;10.07;;
7181;SDS011;3632;42.724;23.298;2023-09-18T01:49:28;11.20;;;10.07;;
7181;SDS011;3632;42.724;23.298;2023-09-18T01:51:56;11.90;;;9.90;;
7181;SDS011;3632;42.724;23.298;2023-09-18T01:54:23;10.13;;;9.07;;
7181;SDS011;3632;42.724;23.298;2023-09-18T01:56:50;11.47;;;10.37;;
7181;SDS011;3632;42.724;23.298;2023-09-18T01:59:19;10.83;;;9.83;;
7181;SDS011;3632;42.724;23.298;2023-09-18T02:01:47;12.10;;;9.83;;
7181;SDS011;3632;42.724;23.298;2023-09-18T02:04:14;10.93;;;9.93;;
7181;SDS011;3632;42.724;23.298;2023-09-18T02:06:42;13.33;;;11.93;;
7181;SDS011;3632;42.724;23.298;2023-09-18T02:09:09;15.30;;;11.47;;
7181;SDS011;3632;42.724;23.298;2023-09-18T02:11:36;12.93;;;11.73;;
7181;SDS011;3632;42.724;23.298;2023-09-18T02:14:04;13.13;;;11.53;;
7181;SDS011;3632;42.724;23.298;2023-09-18T02:16:33;13.33;;;11.93;;
7181;SDS011;3632;42.724;23.298;2023-09-18T02:19:01;13.07;;;11.73;;
7181;SDS011;3632;42.724;23.298;2023-09-18T02:21:28;14.63;;;13.10;;
7181;SDS011;3632;42.724;23.298;2023-09-18T02:23:55;13.83;;;12.47;;
7181;SDS011;3632;42.724;23.298;2023-09-18T02:26:23;16.50;;;13.10;;
7181;SDS011;3632;42.724;23.298;2023-09-18T02:28:51;16.17;;;14.50;;
7181;SDS011;3632;42.724;23.298;2023-09-18T02:31:18;16.40;;;14.80;;
7181;SDS011;3632;42.724;23.298;2023-09-18T02:33:46;16.40;;;14.73;;
7181;SDS011;3632;42.724;23.298;2023-09-18T02:36:13;15.23;;;13.90;;
7181;SDS011;3632;42.724;23.298;2023-09-18T02:38:40;14.07;;;12.67;;
7181;SDS011;3632;42.724;23.298;2023-09-18T02:41:08;14.80;;;13.23;;
7181;SDS011;3632;42.724;23.298;2023-09-18T02:43:35;13.13;;;11.83;;
7181;SDS011;3632;42.724;23.298;2023-09-18T02:46:02;13.63;;;11.83;;
7181;SDS011;3632;42.724;23.298;2023-09-18T02:48:30;12.27;;;11.07;;
7181;SDS011;3632;42.724;23.298;2023-09-18T02:50:58;11.27;;;10.17;;
7181;SDS011;3632;42.724;23.298;2023-09-18T02:53:25;13.73;;;10.80;;
7181;SDS011;3632;42.724;23.298;2023-09-18T02:55:53;11.30;;;10.10;;
7181;SDS011;3632;42.724;23.298;2023-09-18T02:58:21;12.97;;;10.50;;
7181;SDS011;3632;42.724;23.298;2023-09-18T03:00:51;11.53;;;9.80;;
7181;SDS011;3632;42.724;23.298;2023-09-18T03:03:19;10.40;;;9.30;;
7181;SDS011;3632;42.724;23.298;2023-09-18T03:05:46;10.50;;;9.50;;
7181;SDS011;3632;42.724;23.298;2023-09-18T03:08:14;12.90;;;10.27;;
7181;SDS011;3632;42.724;23.298;2023-09-18T03:10:42;10.87;;;9.33;;
7181;SDS011;3632;42.724;23.298;2023-09-18T03:13:11;11.13;;;9.73;;
7181;SDS011;3632;42.724;23.298;2023-09-18T03:15:40;10.70;;;9.60;;
7181;SDS011;3632;42.724;23.298;2023-09-18T03:18:11;10.03;;;9.03;;
7181;SDS011;3632;42.724;23.298;2023-09-18T03:20:38;11.17;;;9.53;;
7181;SDS011;3632;42.724;23.298;2023-09-18T03:23:05;11.00;;;9.30;;
7181;SDS011;3632;42.724;23.298;2023-09-18T03:25:33;11.23;;;9.90;;
7181;SDS011;3632;42.724;23.298;2023-09-18T03:28:01;14.00;;;10.70;;
7181;SDS011;3632;42.724;23.298;2023-09-18T03:30:28;10.10;;;9.00;;
7181;SDS011;3632;42.724;23.298;2023-09-18T03:32:55;11.33;;;9.83;;
7181;SDS011;3632;42.724;23.298;2023-09-18T03:35:22;11.97;;;10.47;;
7181;SDS011;3632;42.724;23.298;2023-09-18T03:37:49;18.10;;;10.40;;
7181;SDS011;3632;42.724;23.298;2023-09-18T03:40:19;12.03;;;10.23;;
7181;SDS011;3632;42.724;23.298;2023-09-18T03:42:48;13.97;;;10.93;;
7181;SDS011;3632;42.724;23.298;2023-09-18T03:45:15;12.97;;;11.60;;
7181;SDS011;3632;42.724;23.298;2023-09-18T03:47:43;13.23;;;11.70;;
7181;SDS011;3632;42.724;23.298;2023-09-18T03:50:11;13.43;;;11.27;;
7181;SDS011;3632;42.724;23.298;2023-09-18T03:52:38;13.17;;;11.87;;
7181;SDS011;3632;42.724;23.298;2023-09-18T03:55:06;13.70;;;12.30;;
7181;SDS011;3632;42.724;23.298;2023-09-18T03:57:33;13.70;;;12.30;;
7181;SDS011;3632;42.724;23.298;2023-09-18T04:00:03;17.50;;;13.67;;
7181;SDS011;3632;42.724;23.298;2023-09-18T04:02:32;15.60;;;14.00;;
7181;SDS011;3632;42.724;23.298;2023-09-18T04:05:00;15.23;;;13.73;;
7181;SDS011;3632;42.724;23.298;2023-09-18T04:07:28;15.50;;;13.73;;
7181;SDS011;3632;42.724;23.298;2023-09-18T04:09:54;15.97;;;14.30;;
7181;SDS011;3632;42.724;23.298;2023-09-18T04:12:21;15.70;;;13.97;;
7181;SDS011;3632;42.724;23.298;2023-09-18T04:14:48;18.07;;;15.10;;
7181;SDS011;3632;42.724;23.298;2023-09-18T04:17:17;21.27;;;15.73;;
7181;SDS011;3632;42.724;23.298;2023-09-18T04:19:45;16.93;;;15.13;;
7181;SDS011;3632;42.724;23.298;2023-09-18T04:22:13;19.10;;;16.03;;
7181;SDS011;3632;42.724;23.298;2023-09-18T04:24:40;18.73;;;16.60;;
7181;SDS011;3632;42.724;23.298;2023-09-18T04:27:07;19.10;;;17.13;;
7181;SDS011;3632;42.724;23.298;2023-09-18T04:29:33;21.13;;;16.57;;
7181;SDS011;3632;42.724;23.298;2023-09-18T04:32:01;19.27;;;15.40;;
7181;SDS011;3632;42.724;23.298;2023-09-18T04:34:30;18.13;;;13.90;;
7181;SDS011;3632;42.724;23.298;2023-09-18T04:36:58;15.83;;;14.13;;
7181;SDS011;3632;42.724;23.298;2023-09-18T04:39:24;15.80;;;12.70;;
7181;SDS011;3632;42.724;23.298;2023-09-18T04:41:51;15.17;;;12.67;;
7181;SDS011;3632;42.724;23.298;2023-09-18T04:44:18;19.87;;;13.33;;
7181;SDS011;3632;42.724;23.298;2023-09-18T04:46:45;14.23;;;12.73;;
7181;SDS011;3632;42.724;23.298;2023-09-18T04:49:13;20.60;;;12.43;;
7181;SDS011;3632;42.724;23.298;2023-09-18T04:51:42;20.10;;;11.50;;
7181;SDS011;3632;42.724;23.298;2023-09-18T04:54:09;19.67;;;11.77;;
7181;SDS011;3632;42.724;23.298;2023-09-18T04:56:36;16.93;;;12.43;;
7181;SDS011;3632;42.724;23.298;2023-09-18T04:59:02;20.00;;;12.23;;
7181;SDS011;3632;42.724;23.298;2023-09-18T05:01:29;16.33;;;11.87;;
7181;SDS011;3632;42.724;23.298;2023-09-18T05:03:57;14.67;;;11.47;;
7181;SDS011;3632;42.724;23.298;2023-09-18T05:06:24;16.40;;;11.87;;
7181;SDS011;3632;42.724;23.298;2023-09-18T05:08:52;13.63;;;12.17;;
7181;SDS011;3632;42.724;23.298;2023-09-18T05:11:19;15.47;;;12.50;;
7181;SDS011;3632;42.724;23.298;2023-09-18T05:13:46;15.43;;;12.70;;
7181;SDS011;3632;42.724;23.298;2023-09-18T05:16:13;15.77;;;11.93;;
7181;SDS011;3632;42.724;23.298;2023-09-18T05:18:39;21.43;;;14.47;;
7181;SDS011;3632;42.724;23.298;2023-09-18T05:21:09;16.37;;;13.13;;
7181;SDS011;3632;42.724;23.298;2023-09-18T05:23:36;16.20;;;13.97;;
7181;SDS011;3632;42.724;23.298;2023-09-18T05:26:04;16.40;;;13.53;;
7181;SDS011;3632;42.724;23.298;2023-09-18T05:28:31;17.97;;;14.47;;
7181;SDS011;3632;42.724;23.298;2023-09-18T05:30:58;16.83;;;13.03;;
7181;SDS011;3632;42.724;23.298;2023-09-18T05:33:25;16.33;;;13.70;;
7181;SDS011;3632;42.724;23.298;2023-09-18T05:35:52;18.00;;;13.70;;
7181;SDS011;3632;42.724;23.298;2023-09-18T05:38:19;15.03;;;12.67;;
7181;SDS011;3632;42.724;23.298;2023-09-18T05:40:46;16.03;;;12.77;;
7181;SDS011;3632;42.724;23.298;2023-09-18T05:43:14;15.87;;;12.47;;
7181;SDS011;3632;42.724;23.298;2023-09-18T05:45:41;18.87;;;12.53;;
7181;SDS011;3632;42.724;23.298;2023-09-18T05:48:07;15.60;;;14.00;;
7181;SDS011;3632;42.724;23.298;2023-09-18T05:50:34;17.93;;;15.17;;
7181;SDS011;3632;42.724;23.298;2023-09-18T05:53:02;16.47;;;13.80;;
7181;SDS011;3632;42.724;23.298;2023-09-18T05:55:30;17.93;;;15.03;;
7181;SDS011;3632;42.724;23.298;2023-09-18T05:57:57;22.83;;;16.37;;
7181;SDS011;3632;42.724;23.298;2023-09-18T06:00:25;17.77;;;15.30;;
7181;SDS011;3632;42.724;23.298;2023-09-18T06:02:52;17.70;;;15.73;;
7181;SDS011;3632;42.724;23.298;2023-09-18T06:05:19;16.70;;;14.93;;
7181;SDS011;3632;42.724;23.298;2023-09-18T06:07:47;20.67;;;14.60;;
7181;SDS011;3632;42.724;23.298;2023-09-18T06:10:14;16.77;;;14.97;;
7181;SDS011;3632;42.724;23.298;2023-09-18T06:12:42;19.70;;;15.10;;
7181;SDS011;3632;42.724;23.298;2023-09-18T06:15:10;22.33;;;16.30;;
7181;SDS011;3632;42.724;23.298;2023-09-18T06:17:39;17.70;;;15.53;;
7181;SDS011;3632;42.724;23.298;2023-09-18T06:20:08;17.30;;;14.93;;
7181;SDS011;3632;42.724;23.298;2023-09-18T06:22:36;22.07;;;17.07;;
7181;SDS011;3632;42.724;23.298;2023-09-18T06:25:04;22.37;;;15.87;;
7181;SDS011;3632;42.724;23.298;2023-09-18T06:27:33;18.10;;;14.53;;
7181;SDS011;3632;42.724;23.298;2023-09-18T06:30:01;17.47;;;15.03;;
7181;SDS011;3632;42.724;23.298;2023-09-18T06:32:29;16.07;;;13.53;;
7181;SDS011;3632;42.724;23.298;2023-09-18T06:34:57;14.83;;;12.90;;
7181;SDS011;3632;42.724;23.298;2023-09-18T06:37:24;15.00;;;13.17;;
7181;SDS011;3632;42.724;23.298;2023-09-18T06:39:51;20.77;;;15.47;;
7181;SDS011;3632;42.724;23.298;2023-09-18T06:42:17;17.73;;;13.37;;
7181;SDS011;3632;42.724;23.298;2023-09-18T06:44:44;14.70;;;12.33;;
7181;SDS011;3632;42.724;23.298;2023-09-18T06:47:11;14.80;;;12.40;;
7181;SDS011;3632;42.724;23.298;2023-09-18T06:49:39;13.33;;;11.90;;
7181;SDS011;3632;42.724;23.298;2023-09-18T06:52:08;15.00;;;12.80;;
7181;SDS011;3632;42.724;23.298;2023-09-18T06:54:35;17.03;;;13.07;;
7181;SDS011;3632;42.724;23.298;2023-09-18T06:57:03;15.20;;;13.13;;
7181;SDS011;3632;42.724;23.298;2023-09-18T06:59:32;19.13;;;13.03;;
7181;SDS011;3632;42.724;23.298;2023-09-18T07:01:59;14.67;;;12.67;;
7181;SDS011;3632;42.724;23.298;2023-09-18T07:04:27;14.27;;;12.77;;
7181;SDS011;3632;42.724;23.298;2023-09-18T07:06:53;15.23;;;12.23;;
7181;SDS011;3632;42.724;23.298;2023-09-18T07:09:23;13.87;;;12.17;;
7181;SDS011;3632;42.724;23.298;2023-09-18T07:11:51;15.93;;;13.50;;
7181;SDS011;3632;42.724;23.298;2023-09-18T07:14:18;14.10;;;12.57;;
7181;SDS011;3632;42.724;23.298;2023-09-18T07:16:45;14.97;;;13.10;;
7181;SDS011;3632;42.724;23.298;2023-09-18T07:19:12;18.47;;;13.00;;
7181;SDS011;3632;42.724;23.298;2023-09-18T07:21:42;15.63;;;13.27;;
7181;SDS011;3632;42.724;23.298;2023-09-18T07:24:09;14.03;;;12.63;;
7181;SDS011;3632;42.724;23.298;2023-09-18T07:26:43;19.33;;;15.00;;
7181;SDS011;3632;42.724;23.298;2023-09-18T07:29:11;15.80;;;14.20;;
7181;SDS011;3632;42.724;23.298;2023-09-18T07:31:40;14.63;;;11.70;;
7181;SDS011;3632;42.724;23.298;2023-09-18T07:34:07;20.30;;;15.73;;
7181;SDS011;3632;42.724;23.298;2023-09-18T07:36:34;17.83;;;15.75;;
7181;SDS011;3632;42.724;23.298;2023-09-18T07:39:02;15.93;;;14.27;;
7181;SDS011;3632;42.724;23.298;2023-09-18T07:41:29;17.93;;;14.40;;
7181;SDS011;3632;42.724;23.298;2023-09-18T07:43:57;14.73;;;13.10;;
7181;SDS011;3632;42.724;23.298;2023-09-18T07:46:24;13.93;;;12.30;;
7181;SDS011;3632;42.724;23.298;2023-09-18T07:48:51;20.30;;;17.57;;
7181;SDS011;3632;42.724;23.298;2023-09-18T07:51:18;14.13;;;12.73;;
7181;SDS011;3632;42.724;23.298;2023-09-18T07:53:45;14.53;;;13.03;;
7181;SDS011;3632;42.724;23.298;2023-09-18T07:56:12;15.40;;;13.70;;
7181;SDS011;3632;42.724;23.298;2023-09-18T07:58:39;14.43;;;12.57;;
7181;SDS011;3632;42.724;23.298;2023-09-18T08:01:07;14.07;;;12.57;;
7181;SDS011;3632;42.724;23.298;2023-09-18T08:03:35;16.53;;;13.63;;
7181;SDS011;3632;42.724;23.298;2023-09-18T08:06:02;12.67;;;11.27;;
7181;SDS011;3632;42.724;23.298;2023-09-18T08:08:30;13.57;;;12.23;;
7181;SDS011;3632;42.724;23.298;2023-09-18T08:11:00;15.93;;;14.23;;
7181;SDS011;3632;42.724;23.298;2023-09-18T08:13:34;15.33;;;12.63;;
7181;SDS011;3632;42.724;23.298;2023-09-18T08:16:01;13.77;;;11.47;;
7181;SDS011;3632;42.724;23.298;2023-09-18T08:18:30;13.30;;;11.90;;
7181;SDS011;3632;42.724;23.298;2023-09-18T08:20:59;13.00;;;11.60;;
7181;SDS011;3632;42.724;23.298;2023-09-18T08:23:26;14.90;;;13.47;;
7181;SDS011;3632;42.724;23.298;2023-09-18T08:25:53;14.10;;;12.67;;
7181;SDS011;3632;42.724;23.298;2023-09-18T08:28:22;11.60;;;10.27;;
7181;SDS011;3632;42.724;23.298;2023-09-18T08:30:49;12.27;;;10.97;;
7181;SDS011;3632;42.724;23.298;2023-09-18T08:33:16;11.87;;;10.67;;
7181;SDS011;3632;42.724;23.298;2023-09-18T08:35:44;12.53;;;10.20;;
7181;SDS011;3632;42.724;23.298;2023-09-18T08:38:12;14.20;;;12.27;;
7181;SDS011;3632;42.724;23.298;2023-09-18T08:40:40;12.80;;;11.50;;
7181;SDS011;3632;42.724;23.298;2023-09-18T08:43:07;13.73;;;11.43;;
7181;SDS011;3632;42.724;23.298;2023-09-18T08:45:39;11.67;;;10.43;;
7181;SDS011;3632;42.724;23.298;2023-09-18T08:48:13;11.40;;;10.20;;
7181;SDS011;3632;42.724;23.298;2023-09-18T08:50:40;11.13;;;9.87;;
7181;SDS011;3632;42.724;23.298;2023-09-18T08:53:11;11.13;;;10.03;;
7181;SDS011;3632;42.724;23.298;2023-09-18T08:55:38;15.50;;;10.23;;
7181;SDS011;3632;42.724;23.298;2023-09-18T08:58:06;11.27;;;10.07;;
7181;SDS011;3632;42.724;23.298;2023-09-18T09:00:33;13.43;;;12.03;;
7181;SDS011;3632;42.724;23.298;2023-09-18T09:03:00;11.80;;;10.33;;
7181;SDS011;3632;42.724;23.298;2023-09-18T09:05:29;13.77;;;11.33;;
7181;SDS011;3632;42.724;23.298;2023-09-18T09:07:57;13.40;;;11.43;;
7181;SDS011;3632;42.724;23.298;2023-09-18T09:10:25;10.53;;;9.43;;
7181;SDS011;3632;42.724;23.298;2023-09-18T09:12:53;11.73;;;10.53;;
7181;SDS011;3632;42.724;23.298;2023-09-18T09:15:21;12.23;;;10.63;;
7181;SDS011;3632;42.724;23.298;2023-09-18T09:17:50;12.57;;;10.60;;
7181;SDS011;3632;42.724;23.298;2023-09-18T09:20:18;11.40;;;10.30;;
7181;SDS011;3632;42.724;23.298;2023-09-18T09:22:44;11.80;;;8.93;;
7181;SDS011;3632;42.724;23.298;2023-09-18T09:25:21;10.73;;;9.67;;
7181;SDS011;3632;42.724;23.298;2023-09-18T09:27:52;12.40;;;8.53;;
7181;SDS011;3632;42.724;23.298;2023-09-18T09:30:20;12.00;;;10.77;;
7181;SDS011;3632;42.724;23.298;2023-09-18T09:32:48;8.47;;;7.67;;
7181;SDS011;3632;42.724;23.298;2023-09-18T09:35:23;11.07;;;8.43;;
7181;SDS011;3632;42.724;23.298;2023-09-18T09:37:52;11.57;;;10.00;;
7181;SDS011;3632;42.724;23.298;2023-09-18T09:40:20;11.47;;;9.10;;
7181;SDS011;3632;42.724;23.298;2023-09-18T09:42:49;10.97;;;8.50;;
7181;SDS011;3632;42.724;23.298;2023-09-18T09:45:25;11.17;;;9.13;;
7181;SDS011;3632;42.724;23.298;2023-09-18T09:47:55;10.00;;;8.63;;
7181;SDS011;3632;42.724;23.298;2023-09-18T09:50:22;10.10;;;8.80;;
7181;SDS011;3632;42.724;23.298;2023-09-18T09:52:51;8.63;;;7.07;;
7181;SDS011;3632;42.724;23.298;2023-09-18T09:55:21;9.10;;;8.13;;
7181;SDS011;3632;42.724;23.298;2023-09-18T09:57:49;9.40;;;8.07;;
7181;SDS011;3632;42.724;23.298;2023-09-18T10:00:19;8.67;;;7.87;;
7181;SDS011;3632;42.724;23.298;2023-09-18T10:02:59;13.13;;;10.30;;
7181;SDS011;3632;42.724;23.298;2023-09-18T10:05:28;8.30;;;7.50;;
7181;SDS011;3632;42.724;23.298;2023-09-18T10:07:58;10.27;;;8.50;;
7181;SDS011;3632;42.724;23.298;2023-09-18T10:10:29;7.77;;;6.90;;
7181;SDS011;3632;42.724;23.298;2023-09-18T10:13:09;7.20;;;6.50;;
7181;SDS011;3632;42.724;23.298;2023-09-18T10:15:40;9.87;;;7.87;;
7181;SDS011;3632;42.724;23.298;2023-09-18T10:18:12;7.37;;;6.60;;
7181;SDS011;3632;42.724;23.298;2023-09-18T10:20:44;9.67;;;6.50;;
7181;SDS011;3632;42.724;23.298;2023-09-18T10:23:21;9.07;;;6.80;;
7181;SDS011;3632;42.724;23.298;2023-09-18T10:26:01;8.03;;;7.23;;
7181;SDS011;3632;42.724;23.298;2023-09-18T10:28:30;6.70;;;6.07;;
7181;SDS011;3632;42.724;23.298;2023-09-18T10:31:00;6.87;;;6.17;;
7181;SDS011;3632;42.724;23.298;2023-09-18T10:33:29;6.73;;;6.03;;
7181;SDS011;3632;42.724;23.298;2023-09-18T10:35:56;9.03;;;6.73;;
7181;SDS011;3632;42.724;23.298;2023-09-18T10:38:26;8.10;;;6.77;;
7181;SDS011;3632;42.724;23.298;2023-09-18T10:40:58;9.00;;;7.17;;
7181;SDS011;3632;42.724;23.298;2023-09-18T10:43:26;8.13;;;6.80;;
7181;SDS011;3632;42.724;23.298;2023-09-18T10:45:54;6.90;;;6.30;;
7181;SDS011;3632;42.724;23.298;2023-09-18T10:48:23;8.13;;;6.20;;
7181;SDS011;3632;42.724;23.298;2023-09-18T10:50:50;11.82;;;5.80;;
7181;SDS011;3632;42.724;23.298;2023-09-18T10:53:18;7.20;;;5.55;;
7181;SDS011;3632;42.724;23.298;2023-09-18T10:55:46;6.47;;;5.65;;
7181;SDS011;3632;42.724;23.298;2023-09-18T10:58:22;7.88;;;5.65;;
7181;SDS011;3632;42.724;23.298;2023-09-18T11:00:50;7.13;;;6.10;;
7181;SDS011;3632;42.724;23.298;2023-09-18T11:03:18;9.10;;;5.80;;
7181;SDS011;3632;42.724;23.298;2023-09-18T11:05:46;8.07;;;5.13;;
7181;SDS011;3632;42.724;23.298;2023-09-18T11:08:28;5.63;;;5.07;;
7181;SDS011;3632;42.724;23.298;2023-09-18T11:10:59;6.53;;;5.70;;
7181;SDS011;3632;42.724;23.298;2023-09-18T11:13:34;6.30;;;5.68;;
7181;SDS011;3632;42.724;23.298;2023-09-18T11:16:13;10.23;;;6.80;;
7181;SDS011;3632;42.724;23.298;2023-09-18T11:18:41;7.75;;;6.65;;
7181;SDS011;3632;42.724;23.298;2023-09-18T11:21:10;5.72;;;5.15;;
7181;SDS011;3632;42.724;23.298;2023-09-18T11:23:39;6.85;;;6.18;;
7181;SDS011;3632;42.724;23.298;2023-09-18T11:26:08;10.55;;;7.75;;
7181;SDS011;3632;42.724;23.298;2023-09-18T11:28:35;11.25;;;8.98;;
7181;SDS011;3632;42.724;23.298;2023-09-18T11:31:03;9.52;;;8.60;;
7181;SDS011;3632;42.724;23.298;2023-09-18T11:33:31;7.47;;;6.78;;
7181;SDS011;3632;42.724;23.298;2023-09-18T11:36:01;8.13;;;5.78;;
7181;SDS011;3632;42.724;23.298;2023-09-18T11:38:31;5.82;;;5.22;;
7181;SDS011;3632;42.724;23.298;2023-09-18T11:41:01;6.45;;;5.82;;
7181;SDS011;3632;42.724;23.298;2023-09-18T11:43:46;8.75;;;4.72;;
7181;SDS011;3632;42.724;23.298;2023-09-18T11:46:17;5.75;;;4.65;;
7181;SDS011;3632;42.724;23.298;2023-09-18T11:48:46;5.18;;;4.57;;
7181;SDS011;3632;42.724;23.298;2023-09-18T11:51:22;8.40;;;6.22;;
7181;SDS011;3632;42.724;23.298;2023-09-18T11:53:53;6.82;;;6.22;;
7181;SDS011;3632;42.724;23.298;2023-09-18T11:56:22;7.28;;;6.57;;
7181;SDS011;3632;42.724;23.298;2023-09-18T11:58:49;5.65;;;5.05;;
7181;SDS011;3632;42.724;23.298;2023-09-18T12:01:17;5.28;;;4.78;;
7181;SDS011;3632;42.724;23.298;2023-09-18T12:03:45;5.28;;;4.50;;
7181;SDS011;3632;42.724;23.298;2023-09-18T12:06:14;6.63;;;5.80;;
7181;SDS011;3632;42.724;23.298;2023-09-18T12:08:41;5.70;;;5.20;;
7181;SDS011;3632;42.724;23.298;2023-09-18T12:11:10;6.55;;;4.10;;
7181;SDS011;3632;42.724;23.298;2023-09-18T12:13:41;5.10;;;4.32;;
7181;SDS011;3632;42.724;23.298;2023-09-18T12:16:09;5.35;;;4.32;;
7181;SDS011;3632;42.724;23.298;2023-09-18T12:18:35;5.28;;;4.30;;
7181;SDS011;3632;42.724;23.298;2023-09-18T12:21:05;5.10;;;4.43;;
7181;SDS011;3632;42.724;23.298;2023-09-18T12:23:39;12.52;;;9.73;;
7181;SDS011;3632;42.724;23.298;2023-09-18T12:26:07;15.27;;;12.07;;
7181;SDS011;3632;42.724;23.298;2023-09-18T12:28:38;6.03;;;5.25;;
7181;SDS011;3632;42.724;23.298;2023-09-18T12:31:09;5.43;;;4.90;;
7181;SDS011;3632;42.724;23.298;2023-09-18T12:33:37;6.72;;;4.57;;
7181;SDS011;3632;42.724;23.298;2023-09-18T12:36:05;9.20;;;6.13;;
7181;SDS011;3632;42.724;23.298;2023-09-18T12:38:34;9.43;;;7.13;;
7181;SDS011;3632;42.724;23.298;2023-09-18T12:41:02;6.38;;;5.85;;
7181;SDS011;3632;42.724;23.298;2023-09-18T12:43:37;9.43;;;5.90;;
7181;SDS011;3632;42.724;23.298;2023-09-18T12:46:06;6.88;;;4.45;;
7181;SDS011;3632;42.724;23.298;2023-09-18T12:48:36;6.00;;;4.30;;
7181;SDS011;3632;42.724;23.298;2023-09-18T12:51:04;8.68;;;7.10;;
7181;SDS011;3632;42.724;23.298;2023-09-18T12:53:31;7.57;;;6.45;;
7181;SDS011;3632;42.724;23.298;2023-09-18T12:56:06;11.73;;;7.28;;
7181;SDS011;3632;42.724;23.298;2023-09-18T12:58:34;6.32;;;5.05;;
7181;SDS011;3632;42.724;23.298;2023-09-18T13:01:05;7.50;;;4.43;;
7181;SDS011;3632;42.724;23.298;2023-09-18T13:03:41;5.32;;;4.60;;
7181;SDS011;3632;42.724;23.298;2023-09-18T13:06:09;5.15;;;4.18;;
7181;SDS011;3632;42.724;23.298;2023-09-18T13:08:37;5.10;;;4.38;;
7181;SDS011;3632;42.724;23.298;2023-09-18T13:11:04;4.80;;;4.03;;
7181;SDS011;3632;42.724;23.298;2023-09-18T13:13:32;7.10;;;4.68;;
7181;SDS011;3632;42.724;23.298;2023-09-18T13:15:59;8.82;;;7.90;;
7181;SDS011;3632;42.724;23.298;2023-09-18T13:18:34;8.15;;;4.40;;
7181;SDS011;3632;42.724;23.298;2023-09-18T13:21:08;5.72;;;4.60;;
7181;SDS011;3632;42.724;23.298;2023-09-18T13:23:35;5.50;;;4.43;;
7181;SDS011;3632;42.724;23.298;2023-09-18T13:26:03;4.25;;;3.83;;
7181;SDS011;3632;42.724;23.298;2023-09-18T13:28:31;6.25;;;5.07;;
7181;SDS011;3632;42.724;23.298;2023-09-18T13:31:00;10.30;;;8.60;;
7181;SDS011;3632;42.724;23.298;2023-09-18T13:33:31;9.60;;;4.97;;
7181;SDS011;3632;42.724;23.298;2023-09-18T13:35:58;6.45;;;5.13;;
7181;SDS011;3632;42.724;23.298;2023-09-18T13:38:25;7.72;;;5.55;;
7181;SDS011;3632;42.724;23.298;2023-09-18T13:40:52;6.90;;;4.65;;
7181;SDS011;3632;42.724;23.298;2023-09-18T13:43:21;5.93;;;4.22;;
7181;SDS011;3632;42.724;23.298;2023-09-18T13:45:48;5.05;;;4.45;;
7181;SDS011;3632;42.724;23.298;2023-09-18T13:48:16;5.00;;;4.60;;
7181;SDS011;3632;42.724;23.298;2023-09-18T13:50:45;9.43;;;5.20;;
7181;SDS011;3632;42.724;23.298;2023-09-18T13:53:13;5.85;;;3.85;;
7181;SDS011;3632;42.724;23.298;2023-09-18T13:55:40;8.18;;;5.30;;
7181;SDS011;3632;42.724;23.298;2023-09-18T13:58:07;5.28;;;4.60;;
7181;SDS011;3632;42.724;23.298;2023-09-18T14:00:34;7.25;;;5.15;;
7181;SDS011;3632;42.724;23.298;2023-09-18T14:03:01;6.80;;;4.25;;
7181;SDS011;3632;42.724;23.298;2023-09-18T14:05:29;6.82;;;5.30;;
7181;SDS011;3632;42.724;23.298;2023-09-18T14:08:01;6.32;;;5.03;;
7181;SDS011;3632;42.724;23.298;2023-09-18T14:10:29;7.03;;;4.80;;
7181;SDS011;3632;42.724;23.298;2023-09-18T14:12:56;5.93;;;5.18;;
7181;SDS011;3632;42.724;23.298;2023-09-18T14:15:23;5.68;;;4.57;;
7181;SDS011;3632;42.724;23.298;2023-09-18T14:17:51;7.88;;;6.55;;
7181;SDS011;3632;42.724;23.298;2023-09-18T14:20:17;7.68;;;4.88;;
7181;SDS011;3632;42.724;23.298;2023-09-18T14:22:44;5.72;;;5.20;;
7181;SDS011;3632;42.724;23.298;2023-09-18T14:25:16;6.20;;;5.00;;
7181;SDS011;3632;42.724;23.298;2023-09-18T14:27:45;5.25;;;4.60;;
7181;SDS011;3632;42.724;23.298;2023-09-18T14:30:12;6.15;;;4.68;;
7181;SDS011;3632;42.724;23.298;2023-09-18T14:32:39;5.60;;;4.65;;
7181;SDS011;3632;42.724;23.298;2023-09-18T14:35:06;6.68;;;5.07;;
7181;SDS011;3632;42.724;23.298;2023-09-18T14:37:34;8.00;;;6.03;;
7181;SDS011;3632;42.724;23.298;2023-09-18T14:40:01;8.68;;;6.70;;
7181;SDS011;3632;42.724;23.298;2023-09-18T14:42:30;6.80;;;5.28;;
7181;SDS011;3632;42.724;23.298;2023-09-18T14:44:58;6.50;;;5.90;;
7181;SDS011;3632;42.724;23.298;2023-09-18T14:47:26;5.47;;;4.80;;
7181;SDS011;3632;42.724;23.298;2023-09-18T14:49:53;6.13;;;5.53;;